Sat, 25 Jan 2020 06:01:55 UTC

Information for RPM ethtool-5-1.fc7.ppc.rpm

ID29768
Nameethtool
Version5
Release1.fc7
Epoch
Archppc
SummaryEthernet settings tool for PCI ethernet cards
DescriptionThis utility allows querying and changing of ethernet card settings, such as speed, port, autonegotiation, and PCI locations.
Build Time2006-12-14 20:43:08 GMT
Size65,173
a6e061572a4b000b1fc5323ff30523cd
LicenseGPL
Provides
ethtool = 5-1.fc7
Obsoletes No Obsoletes
Conflicts No Conflicts
Requires
libc.so.6
libc.so.6(GLIBC_2.0)
libc.so.6(GLIBC_2.3.4)
libc.so.6(GLIBC_2.4)
rpmlib(CompressedFileNames) <= 3.0.4-1
rpmlib(PayloadFilesHavePrefix) <= 4.0-1
rtld(GNU_HASH)
Recommends No Recommends
Suggests No Suggests
Supplements No Supplements
Enhances No Enhances
Files
1 through 10 of 10
Name ascending sort Size
/sbin/ethtool104,980
/usr/sbin/ethtool13
/usr/share/doc/ethtool-54,096
/usr/share/doc/ethtool-5/AUTHORS267
/usr/share/doc/ethtool-5/COPYING17,992
/usr/share/doc/ethtool-5/ChangeLog11,384
/usr/share/doc/ethtool-5/INSTALL9,273
/usr/share/doc/ethtool-5/NEWS3,141
/usr/share/doc/ethtool-5/README127
/usr/share/man/man8/ethtool.8.gz2,803
Component of
Page:
1 through 50 of 28750 >>>
Buildroot descending sort Created State
dist-f8-build-457091-71264 2009-05-19 22:16:42 expired
dist-f8-build-435827-71264 2009-04-22 13:44:34 expired
dist-f8-build-435365-71264 2009-04-22 01:46:45 expired
dist-f8-build-434844-71264 2009-04-21 21:31:54 expired
dist-f8-build-434818-71264 2009-04-21 21:19:33 expired
dist-f8-build-430511-68129 2009-04-17 01:48:24 expired
dist-f8-build-430507-68129 2009-04-17 01:37:12 expired
dist-f8-build-430503-68129 2009-04-17 01:15:52 expired
dist-f8-build-430488-68129 2009-04-17 01:00:08 expired
dist-f8-build-430438-68129 2009-04-17 00:12:09 expired
dist-f8-build-426331-68129 2009-04-13 07:59:15 expired
dist-f8-build-418215-68129 2009-04-02 07:26:34 expired
dist-f8-build-416379-68129 2009-03-31 12:42:00 expired
dist-f8-build-408956-68129 2009-03-20 09:25:19 expired
dist-f8-build-394626-65603 2009-03-04 17:55:09 expired
dist-f8-build-394622-65603 2009-03-04 17:50:03 expired
dist-f8-build-387052-65603 2009-02-27 15:02:52 expired
dist-f8-build-353114-65603 2009-02-19 17:38:47 expired
dist-f8-build-324942-58606 2009-01-11 03:45:47 expired
dist-f8-build-324929-58606 2009-01-11 02:44:01 expired
dist-f8-build-323123-58606 2009-01-08 04:41:43 expired
dist-f8-build-323072-58606 2009-01-08 00:28:30 expired
dist-f8-build-323030-58606 2009-01-07 23:17:57 expired
dist-f8-build-322936-58606 2009-01-07 21:28:09 expired
dist-f8-build-322892-58606 2009-01-07 20:39:43 expired
dist-f8-build-322491-58485 2009-01-07 10:19:41 expired
dist-f8-build-321924-58308 2009-01-06 14:30:14 expired
dist-f8-build-321542-58308 2009-01-05 23:08:02 expired
dist-f8-build-321458-58308 2009-01-05 20:48:30 expired
dist-f8-build-321344-58308 2009-01-05 18:11:14 expired
dist-f8-build-320988-57785 2009-01-05 10:31:14 expired
dist-f8-build-320556-57785 2009-01-04 18:09:39 expired
dist-f8-build-320497-57785 2009-01-04 15:55:18 expired
dist-f8-build-320225-57785 2009-01-03 15:55:50 expired
dist-f8-build-320070-57785 2009-01-03 06:37:07 expired
dist-f8-build-319857-57785 2009-01-02 14:15:03 expired
dist-f8-build-319826-57785 2009-01-02 13:05:32 expired
dist-f8-build-319734-57785 2009-01-02 07:51:07 expired
dist-f8-build-319724-57785 2009-01-02 07:28:34 expired
dist-f8-build-319712-57785 2009-01-02 06:01:17 expired
dist-f8-build-319694-57785 2009-01-02 04:55:19 expired
dist-f8-build-319676-57785 2009-01-02 04:05:17 expired
dist-f8-build-319626-57785 2009-01-01 22:50:33 expired
dist-f8-build-319451-57785 2009-01-01 11:05:19 expired
dist-f8-build-319309-57785 2008-12-31 16:40:38 expired
dist-f8-build-319275-57785 2008-12-31 15:54:44 expired
dist-f8-build-319049-57785 2008-12-31 04:38:14 expired
dist-f8-build-319033-57785 2008-12-31 04:05:11 expired
dist-f8-build-318787-57488 2008-12-30 12:01:59 expired
dist-f8-build-318692-57488 2008-12-30 02:17:13 expired